Time;durP1;ratioP1;P1;durP2;ratioP2;P2;SDS_P1;SDS_P2;PMS_P1;PMS_P2;Temp;Humidity;BMP_temperature;BMP_pressure;BME280_temperature;BME280_humidity;BME280_pressure;Samples;Min_cycle;Max_cycle;Signal;HPM_P1;HPM_P2
2022/01/27 00:01:43;;;;;;;34.42;22.08;;;;;;;;;;4991632;28;94488;-69
2022/01/27 00:04:18;;;;;;;37.92;22.08;;;;;;;;;;4979803;28;93332;-69
2022/01/27 00:06:45;;;;;;;33.65;22.73;;;;;;;;;;4984966;28;96177;-69
2022/01/27 00:09:17;;;;;;;30.65;21.35;;;;;;;;;;4987083;28;93235;-69
2022/01/27 00:11:46;;;;;;;35.10;22.33;;;;;;;;;;4993965;28;92869;-70
2022/01/27 00:14:15;;;;;;;37.08;22.88;;;;;;;;;;4988764;28;93783;-69
2022/01/27 00:16:51;;;;;;;42.38;24.67;;;;;;;;;;4980855;28;93835;-69
2022/01/27 00:19:17;;;;;;;41.30;23.75;;;;;;;;;;4979105;28;93008;-69
2022/01/27 00:21:44;;;;;;;29.90;21.75;;;;;;;;;;4994905;28;93643;-69
2022/01/27 00:24:10;;;;;;;33.03;22.08;;;;;;;;;;4983997;28;92348;-69
2022/01/27 00:26:37;;;;;;;35.65;21.88;;;;;;;;;;4977819;28;93751;-70
2022/01/27 00:29:03;;;;;;;32.50;22.02;;;;;;;;;;4980281;28;96307;-69
2022/01/27 00:31:29;;;;;;;33.40;19.75;;;;;;;;;;4989187;28;94950;-70
2022/01/27 00:33:56;;;;;;;31.25;19.90;;;;;;;;;;4984021;28;97354;-69
2022/01/27 00:36:22;;;;;;;30.95;20.02;;;;;;;;;;4982213;28;92550;-69
2022/01/27 00:38:49;;;;;;;30.85;22.15;;;;;;;;;;4990908;28;93090;-69
2022/01/27 00:41:19;;;;;;;31.33;21.25;;;;;;;;;;4980456;28;93007;-69
2022/01/27 00:43:46;;;;;;;31.65;20.35;;;;;;;;;;4977323;28;93195;-69
2022/01/27 00:46:16;;;;;;;31.30;20.42;;;;;;;;;;4986903;28;93341;-69
2022/01/27 00:48:43;;;;;;;33.38;20.50;;;;;;;;;;4985816;28;93108;-69
2022/01/27 00:51:11;;;;;;;31.13;19.90;;;;;;;;;;4980599;28;93354;-69
2022/01/27 00:56:23;;;;;;;34.20;21.23;;;;;;;;;;4974595;28;95908;-69
2022/01/27 00:58:59;;;;;;;28.67;19.45;;;;;;;;;;4991965;28;96216;-69
2022/01/27 01:01:31;;;;;;;31.30;19.48;;;;;;;;;;4990201;28;93963;-69
2022/01/27 01:04:01;;;;;;;32.72;20.77;;;;;;;;;;4980870;28;92601;-69
2022/01/27 01:17:26;;;;;;;32.30;19.52;;;;;;;;;;4967711;28;93555;-69
2022/01/27 01:20:19;;;;;;;26.13;17.67;;;;;;;;;;4982609;28;92573;-69
2022/01/27 01:34:16;;;;;;;23.80;14.90;;;;;;;;;;4953124;28;92937;-68
2022/01/27 01:37:03;;;;;;;22.98;17.20;;;;;;;;;;4983088;28;94137;-68
2022/01/27 01:39:31;;;;;;;34.17;20.15;;;;;;;;;;4983059;28;94638;-68
2022/01/27 01:41:58;;;;;;;30.52;20.15;;;;;;;;;;4989207;28;91775;-68
2022/01/27 01:44:25;;;;;;;28.52;18.33;;;;;;;;;;4984272;28;93318;-68
2022/01/27 01:46:51;;;;;;;34.63;19.33;;;;;;;;;;4988767;28;92525;-68
2022/01/27 01:49:18;;;;;;;27.27;19.83;;;;;;;;;;4977399;28;95162;-68
2022/01/27 01:51:44;;;;;;;29.58;18.85;;;;;;;;;;4990893;28;94282;-68
2022/01/27 01:54:11;;;;;;;33.20;20.27;;;;;;;;;;4975407;28;93032;-68
2022/01/27 01:56:38;;;;;;;32.63;20.27;;;;;;;;;;4983138;28;94239;-68
2022/01/27 01:59:08;;;;;;;28.65;19.88;;;;;;;;;;4987541;28;93355;-68
2022/01/27 02:01:36;;;;;;;32.92;20.25;;;;;;;;;;4982514;28;92462;-68
2022/01/27 02:04:08;;;;;;;34.42;19.52;;;;;;;;;;4979436;28;93736;-68
2022/01/27 02:06:48;;;;;;;34.38;20.63;;;;;;;;;;4986947;28;91767;-68
2022/01/27 02:09:51;;;;;;;28.55;20.02;;;;;;;;;;4973559;28;93496;-68
2022/01/27 02:18:01;;;;;;;34.17;19.15;;;;;;;;;;4989737;28;96525;-68
2022/01/27 02:20:28;;;;;;;28.45;20.38;;;;;;;;;;4976856;28;92464;-68
2022/01/27 02:22:54;;;;;;;40.60;22.55;;;;;;;;;;4985909;28;92509;-68
2022/01/27 02:25:21;;;;;;;27.23;19.60;;;;;;;;;;4981452;28;94078;-68
2022/01/27 02:27:51;;;;;;;27.70;20.10;;;;;;;;;;4991008;28;93508;-68
2022/01/27 02:30:17;;;;;;;40.28;21.00;;;;;;;;;;4990510;28;95250;-69
2022/01/27 02:32:45;;;;;;;36.22;21.10;;;;;;;;;;4986475;28;92772;-68
2022/01/27 02:35:11;;;;;;;35.72;21.45;;;;;;;;;;4980467;28;92537;-68
2022/01/27 02:37:38;;;;;;;28.27;19.10;;;;;;;;;;4984300;28;94045;-68
2022/01/27 02:40:05;;;;;;;30.45;22.10;;;;;;;;;;4977460;28;96576;-68
2022/01/27 02:42:36;;;;;;;38.97;23.17;;;;;;;;;;4974857;28;93640;-68
2022/01/27 02:45:08;;;;;;;32.85;21.45;;;;;;;;;;4988263;28;94376;-70
2022/01/27 02:47:35;;;;;;;35.42;22.65;;;;;;;;;;4988621;28;93742;-68
2022/01/27 02:50:01;;;;;;;43.80;22.08;;;;;;;;;;4991595;28;92584;-69
2022/01/27 02:52:27;;;;;;;25.63;14.63;;;;;;;;;;4988104;28;94861;-69
2022/01/27 02:54:54;;;;;;;33.75;22.85;;;;;;;;;;4983018;28;93013;-68
2022/01/27 02:57:22;;;;;;;35.22;21.80;;;;;;;;;;4992649;28;92877;-68
2022/01/27 02:59:49;;;;;;;32.20;19.30;;;;;;;;;;4993657;28;93484;-68
2022/01/27 03:02:19;;;;;;;38.65;22.65;;;;;;;;;;5003744;28;93051;-68
2022/01/27 03:04:45;;;;;;;32.90;21.38;;;;;;;;;;4983721;28;94892;-68
2022/01/27 03:07:12;;;;;;;30.27;20.85;;;;;;;;;;4981984;28;93951;-68
2022/01/27 03:09:38;;;;;;;35.67;23.30;;;;;;;;;;4993123;28;92489;-68
2022/01/27 03:12:07;;;;;;;27.67;18.85;;;;;;;;;;4999613;28;94530;-68
2022/01/27 03:14:34;;;;;;;33.67;22.95;;;;;;;;;;4985854;28;92537;-68
2022/01/27 03:17:02;;;;;;;41.30;21.48;;;;;;;;;;4990501;28;93209;-68
2022/01/27 03:19:28;;;;;;;33.15;20.25;;;;;;;;;;4998569;28;94292;-68
2022/01/27 03:21:55;;;;;;;35.75;22.40;;;;;;;;;;4997053;28;91838;-68
2022/01/27 03:24:23;;;;;;;31.30;21.20;;;;;;;;;;4982836;28;93169;-68
2022/01/27 03:26:49;;;;;;;35.15;21.17;;;;;;;;;;4985061;28;94114;-68
2022/01/27 03:29:17;;;;;;;29.98;19.25;;;;;;;;;;4989172;28;95389;-69
2022/01/27 03:31:44;;;;;;;34.53;21.83;;;;;;;;;;4994837;28;95822;-69
2022/01/27 03:34:10;;;;;;;42.88;22.02;;;;;;;;;;4988366;28;94241;-69
2022/01/27 03:36:37;;;;;;;32.90;21.63;;;;;;;;;;4975250;28;94383;-68
2022/01/27 03:39:04;;;;;;;36.42;22.20;;;;;;;;;;4986093;28;93753;-69
2022/01/27 03:41:33;;;;;;;33.85;21.42;;;;;;;;;;4984299;28;92718;-69
2022/01/27 03:44:00;;;;;;;38.08;21.65;;;;;;;;;;4992656;28;93225;-69
2022/01/27 03:46:26;;;;;;;29.45;17.52;;;;;;;;;;4977349;28;93654;-69
2022/01/27 03:48:53;;;;;;;36.95;22.33;;;;;;;;;;4996255;28;93467;-69
2022/01/27 03:51:19;;;;;;;39.40;22.15;;;;;;;;;;4984388;28;93066;-69
2022/01/27 03:53:46;;;;;;;34.22;21.58;;;;;;;;;;4990646;28;96803;-68
2022/01/27 03:56:13;;;;;;;29.23;20.65;;;;;;;;;;4981400;28;92821;-68
2022/01/27 03:58:39;;;;;;;30.27;21.48;;;;;;;;;;4985237;28;93411;-68
2022/01/27 04:01:06;;;;;;;38.78;22.05;;;;;;;;;;4981389;28;92508;-69
2022/01/27 04:03:34;;;;;;;39.65;22.58;;;;;;;;;;4979687;28;93442;-69
2022/01/27 04:06:07;;;;;;;31.98;21.45;;;;;;;;;;4986218;28;93456;-70
2022/01/27 04:08:35;;;;;;;;;;;;;;;;;;4988923;28;93679;-69
2022/01/27 04:11:02;;;;;;;39.40;22.40;;;;;;;;;;4989811;28;121612;-69
2022/01/27 04:13:28;;;;;;;35.35;21.30;;;;;;;;;;4981484;28;94482;-69
2022/01/27 04:15:54;;;;;;;43.55;24.05;;;;;;;;;;4989778;28;92459;-69
2022/01/27 04:18:21;;;;;;;38.08;20.48;;;;;;;;;;4988293;28;96969;-69
2022/01/27 04:20:47;;;;;;;38.22;21.48;;;;;;;;;;4986859;28;92534;-69
2022/01/27 04:23:13;;;;;;;36.03;21.35;;;;;;;;;;4980435;28;93066;-69
2022/01/27 04:25:41;;;;;;;34.33;21.40;;;;;;;;;;4975416;28;94405;-69
2022/01/27 04:28:11;;;;;;;34.55;20.15;;;;;;;;;;4976241;28;94006;-69
2022/01/27 04:30:38;;;;;;;37.10;20.50;;;;;;;;;;4990925;28;93311;-69
2022/01/27 04:33:06;;;;;;;32.10;19.13;;;;;;;;;;4979732;28;94679;-69
2022/01/27 04:35:36;;;;;;;35.10;22.05;;;;;;;;;;4975084;28;91749;-69
2022/01/27 04:38:17;;;;;;;38.47;22.02;;;;;;;;;;4990554;28;93698;-69
2022/01/27 04:43:50;;;;;;;35.95;19.63;;;;;;;;;;4989619;28;94881;-69
2022/01/27 04:46:31;;;;;;;21.38;14.30;;;;;;;;;;4985039;28;94379;-70
2022/01/27 04:49:02;;;;;;;29.23;16.50;;;;;;;;;;4986936;28;92464;-68
2022/01/27 04:51:29;;;;;;;34.20;18.25;;;;;;;;;;4988997;28;93916;-68
2022/01/27 04:54:18;;;;;;;44.35;23.10;;;;;;;;;;4986318;28;93404;-68
2022/01/27 04:56:44;;;;;;;34.75;19.27;;;;;;;;;;4975672;28;92457;-68
2022/01/27 04:59:17;;;;;;;34.17;22.65;;;;;;;;;;4984750;28;93558;-69
2022/01/27 05:02:04;;;;;;;41.38;21.58;;;;;;;;;;4994600;28;93505;-68
2022/01/27 05:04:35;;;;;;;37.47;20.55;;;;;;;;;;4980517;28;93786;-68
2022/01/27 05:07:02;;;;;;;41.50;21.40;;;;;;;;;;4991497;28;94862;-68
2022/01/27 05:09:28;;;;;;;35.13;21.58;;;;;;;;;;4985227;28;94922;-70
2022/01/27 05:12:00;;;;;;;42.50;19.77;;;;;;;;;;4986725;28;96181;-68
2022/01/27 05:14:27;;;;;;;31.40;16.80;;;;;;;;;;4976843;28;94315;-68
2022/01/27 05:16:53;;;;;;;39.42;20.40;;;;;;;;;;4985003;28;92511;-68
2022/01/27 05:19:20;;;;;;;37.95;20.60;;;;;;;;;;4987915;28;93482;-69
2022/01/27 05:21:46;;;;;;;38.25;18.27;;;;;;;;;;4991535;28;94487;-68
2022/01/27 05:24:19;;;;;;;36.67;20.40;;;;;;;;;;4991848;28;92494;-68
2022/01/27 05:26:47;;;;;;;43.17;20.67;;;;;;;;;;4988896;28;93191;-68
2022/01/27 05:29:13;;;;;;;33.92;18.65;;;;;;;;;;4985148;28;92504;-68
2022/01/27 05:31:40;;;;;;;35.97;18.95;;;;;;;;;;4986803;28;94914;-68
2022/01/27 05:34:06;;;;;;;27.80;17.10;;;;;;;;;;4985630;28;96666;-69
2022/01/27 05:36:34;;;;;;;36.65;17.95;;;;;;;;;;4977692;28;92462;-69
2022/01/27 05:39:00;;;;;;;31.92;18.65;;;;;;;;;;4984319;28;93575;-69
2022/01/27 05:41:27;;;;;;;33.53;16.55;;;;;;;;;;4992954;28;94009;-69
2022/01/27 05:43:53;;;;;;;38.55;19.17;;;;;;;;;;4980461;28;93643;-69
2022/01/27 05:46:19;;;;;;;34.10;17.45;;;;;;;;;;4988348;28;92972;-70
2022/01/27 05:48:46;;;;;;;30.05;16.80;;;;;;;;;;4972836;28;92491;-69
2022/01/27 05:51:13;;;;;;;40.13;17.33;;;;;;;;;;4992620;28;93887;-69
2022/01/27 05:53:41;;;;;;;31.23;17.90;;;;;;;;;;4979222;28;93876;-69
2022/01/27 05:56:08;;;;;;;34.53;17.33;;;;;;;;;;4993006;28;92823;-69
2022/01/27 05:58:34;;;;;;;31.45;17.27;;;;;;;;;;4987141;28;95801;-69
2022/01/27 06:01:01;;;;;;;33.10;16.70;;;;;;;;;;4975910;28;94608;-69
2022/01/27 06:03:27;;;;;;;38.65;17.13;;;;;;;;;;4991498;28;92471;-69
2022/01/27 06:05:54;;;;;;;40.50;17.25;;;;;;;;;;4986798;28;93861;-69
2022/01/27 06:08:20;;;;;;;37.42;16.92;;;;;;;;;;4982132;28;92502;-69
2022/01/27 06:10:47;;;;;;;28.25;15.60;;;;;;;;;;4985492;28;93844;-69
2022/01/27 06:13:13;;;;;;;32.80;16.42;;;;;;;;;;4990566;28;94303;-69
2022/01/27 06:15:43;;;;;;;32.00;16.10;;;;;;;;;;4993403;28;91794;-69
2022/01/27 06:18:13;;;;;;;33.53;13.68;;;;;;;;;;4984933;28;93757;-69
2022/01/27 06:20:43;;;;;;;29.73;16.13;;;;;;;;;;4983428;28;93714;-69
2022/01/27 06:23:10;;;;;;;32.78;16.30;;;;;;;;;;4981503;28;94910;-69
2022/01/27 06:25:36;;;;;;;25.85;14.50;;;;;;;;;;4991667;28;96292;-69
2022/01/27 06:28:03;;;;;;;31.02;15.20;;;;;;;;;;4982366;28;94191;-69
2022/01/27 06:30:29;;;;;;;25.50;14.90;;;;;;;;;;4991956;28;94076;-69
2022/01/27 06:32:55;;;;;;;29.73;13.60;;;;;;;;;;4982358;28;93108;-69
2022/01/27 06:35:22;;;;;;;36.25;14.98;;;;;;;;;;4983363;28;92627;-69
2022/01/27 06:37:49;;;;;;;27.77;16.00;;;;;;;;;;4993168;28;93505;-70
2022/01/27 06:40:16;;;;;;;39.05;16.58;;;;;;;;;;4986135;28;92908;-69
2022/01/27 06:42:42;;;;;;;37.92;15.93;;;;;;;;;;4988132;28;92517;-69
2022/01/27 06:45:09;;;;;;;42.65;17.40;;;;;;;;;;4991570;28;94831;-69
2022/01/27 06:47:35;;;;;;;33.58;17.15;;;;;;;;;;4983979;28;96276;-69
2022/01/27 06:50:02;;;;;;;38.08;16.05;;;;;;;;;;4994704;28;92995;-69
2022/01/27 06:52:28;;;;;;;39.30;16.33;;;;;;;;;;4979652;28;94394;-69
2022/01/27 06:54:55;;;;;;;40.13;20.17;;;;;;;;;;4989465;28;93215;-69
2022/01/27 06:57:22;;;;;;;40.25;19.20;;;;;;;;;;4988380;28;93969;-69
2022/01/27 06:59:49;;;;;;;46.13;19.27;;;;;;;;;;4986915;28;94318;-69
2022/01/27 07:02:15;;;;;;;43.90;18.65;;;;;;;;;;4982558;28;93039;-70
2022/01/27 07:04:42;;;;;;;54.30;20.30;;;;;;;;;;4980117;28;94197;-68
2022/01/27 07:07:08;;;;;;;40.47;17.92;;;;;;;;;;4989130;28;93545;-68
2022/01/27 07:09:35;;;;;;;48.70;18.92;;;;;;;;;;4993857;28;92668;-68
2022/01/27 07:12:02;;;;;;;37.38;18.55;;;;;;;;;;4986489;28;95406;-68
2022/01/27 07:14:30;;;;;;;50.80;18.63;;;;;;;;;;4986989;28;92579;-68
2022/01/27 07:16:57;;;;;;;54.03;19.75;;;;;;;;;;4985422;28;93824;-68
2022/01/27 07:19:24;;;;;;;58.55;21.48;;;;;;;;;;4993052;28;94224;-69
2022/01/27 07:21:50;;;;;;;39.53;19.45;;;;;;;;;;4990384;28;92570;-68
2022/01/27 07:24:17;;;;;;;46.92;18.50;;;;;;;;;;4981133;28;93817;-68
2022/01/27 07:26:44;;;;;;;53.00;20.38;;;;;;;;;;4983516;28;94186;-69
2022/01/27 07:29:10;;;;;;;43.58;19.27;;;;;;;;;;4984656;28;92625;-69
2022/01/27 07:31:37;;;;;;;42.42;19.13;;;;;;;;;;4986919;28;93058;-69
2022/01/27 07:34:03;;;;;;;42.40;19.02;;;;;;;;;;4991584;28;94146;-69
2022/01/27 07:36:31;;;;;;;36.08;16.50;;;;;;;;;;4990965;28;96540;-69
2022/01/27 07:38:58;;;;;;;39.10;15.38;;;;;;;;;;4982356;28;94708;-69
2022/01/27 07:41:25;;;;;;;41.13;19.25;;;;;;;;;;4984841;28;92540;-70
2022/01/27 07:43:51;;;;;;;39.67;16.83;;;;;;;;;;4992111;28;93959;-69
2022/01/27 07:46:17;;;;;;;48.65;19.45;;;;;;;;;;4989626;28;94782;-70
2022/01/27 07:48:44;;;;;;;34.70;18.13;;;;;;;;;;4984958;28;92521;-71
2022/01/27 07:51:11;;;;;;;42.53;17.40;;;;;;;;;;4985401;28;93499;-71
2022/01/27 07:53:38;;;;;;;36.13;17.98;;;;;;;;;;4991637;28;93637;-70
2022/01/27 07:56:24;;;;;;;35.13;16.27;;;;;;;;;;4992916;28;92624;-71
2022/01/27 07:58:51;;;;;;;23.60;13.27;;;;;;;;;;4992393;28;93598;-69
2022/01/27 08:01:17;;;;;;;28.95;16.23;;;;;;;;;;4992378;28;96459;-70
2022/01/27 08:03:44;;;;;;;28.15;15.25;;;;;;;;;;4991416;28;95985;-68
2022/01/27 08:06:10;;;;;;;37.97;17.45;;;;;;;;;;4989698;28;94824;-68
2022/01/27 08:08:37;;;;;;;40.20;18.33;;;;;;;;;;4990456;28;94610;-69
2022/01/27 08:11:03;;;;;;;35.67;16.38;;;;;;;;;;4993206;28;94088;-69
2022/01/27 08:13:30;;;;;;;33.80;18.25;;;;;;;;;;4996381;28;93517;-69
2022/01/27 08:15:56;;;;;;;45.80;19.13;;;;;;;;;;4993548;28;92593;-69
2022/01/27 08:18:42;;;;;;;41.40;18.80;;;;;;;;;;4990148;28;93867;-69
2022/01/27 08:21:09;;;;;;;42.10;19.60;;;;;;;;;;4988803;28;92575;-69
2022/01/27 08:23:37;;;;;;;35.90;18.15;;;;;;;;;;4990178;28;93917;-69
2022/01/27 08:26:09;;;;;;;40.78;18.50;;;;;;;;;;4997687;28;96762;-70
2022/01/27 08:28:42;;;;;;;32.20;14.38;;;;;;;;;;4992431;28;92590;-69
2022/01/27 08:31:08;;;;;;;34.88;15.90;;;;;;;;;;4988635;28;93637;-69
2022/01/27 08:33:38;;;;;;;28.13;15.23;;;;;;;;;;4989046;28;94869;-69
2022/01/27 08:36:05;;;;;;;35.15;15.82;;;;;;;;;;4986878;28;92627;-70
2022/01/27 08:38:31;;;;;;;25.48;14.95;;;;;;;;;;4997364;28;93256;-69
2022/01/27 08:40:59;;;;;;;37.42;16.05;;;;;;;;;;4999697;28;93300;-69
2022/01/27 08:43:26;;;;;;;38.25;15.95;;;;;;;;;;4987958;28;93508;-70
2022/01/27 08:45:53;;;;;;;27.38;14.55;;;;;;;;;;4994961;28;95333;-69
2022/01/27 08:48:21;;;;;;;38.85;15.77;;;;;;;;;;4996906;28;93197;-71
2022/01/27 08:51:00;;;;;;;22.15;12.82;;;;;;;;;;4990625;28;95158;-69
2022/01/27 08:53:46;;;;;;;17.08;11.90;;;;;;;;;;4997913;28;95018;-69
2022/01/27 08:56:13;;;;;;;26.35;12.48;;;;;;;;;;5005945;28;92715;-69
2022/01/27 08:58:40;;;;;;;29.02;14.48;;;;;;;;;;5003671;28;94261;-69
2022/01/27 09:01:06;;;;;;;24.90;12.75;;;;;;;;;;5013904;28;94136;-69
2022/01/27 09:03:34;;;;;;;20.80;10.73;;;;;;;;;;5009144;28;94268;-69
2022/01/27 09:06:01;;;;;;;23.83;12.93;;;;;;;;;;4991223;28;93635;-69
2022/01/27 09:08:28;;;;;;;30.30;13.60;;;;;;;;;;5005321;28;91799;-69
2022/01/27 09:10:54;;;;;;;24.92;12.95;;;;;;;;;;4993050;28;93149;-69
2022/01/27 09:13:20;;;;;;;30.48;12.50;;;;;;;;;;5001626;28;94144;-70
2022/01/27 09:15:49;;;;;;;23.58;13.18;;;;;;;;;;5000995;28;95255;-69
2022/01/27 09:18:16;;;;;;;25.38;12.95;;;;;;;;;;5000064;28;95465;-69
2022/01/27 09:20:43;;;;;;;23.30;12.13;;;;;;;;;;5004974;28;93519;-69
2022/01/27 09:23:14;;;;;;;23.50;12.88;;;;;;;;;;4999993;28;92501;-69
2022/01/27 09:25:47;;;;;;;26.20;12.23;;;;;;;;;;4988507;28;93687;-69
2022/01/27 09:28:13;;;;;;;;;;;;;;;;;;4988653;28;92439;-69
2022/01/27 09:30:41;;;;;;;23.33;11.32;;;;;;;;;;5004088;28;124071;-69
2022/01/27 09:33:07;;;;;;;18.13;11.75;;;;;;;;;;5007417;28;94588;-70
2022/01/27 09:35:34;;;;;;;31.30;12.43;;;;;;;;;;4998302;28;92515;-70
2022/01/27 09:38:01;;;;;;;22.02;12.00;;;;;;;;;;5002264;28;93759;-70
2022/01/27 09:40:29;;;;;;;28.58;12.57;;;;;;;;;;5004430;28;96304;-69
2022/01/27 09:42:56;;;;;;;41.28;14.50;;;;;;;;;;4996807;28;92517;-70
2022/01/27 09:45:23;;;;;;;27.65;10.95;;;;;;;;;;4998271;28;93145;-70
2022/01/27 09:47:58;;;;;;;31.52;11.52;;;;;;;;;;4991598;28;92499;-70
2022/01/27 09:53:11;;;;;;;18.73;9.40;;;;;;;;;;4995534;28;94140;-69
2022/01/27 09:55:37;;;;;;;21.30;10.73;;;;;;;;;;5003970;28;92535;-69
2022/01/27 09:58:05;;;;;;;19.23;9.30;;;;;;;;;;5000692;28;93722;-70
2022/01/27 10:00:31;;;;;;;24.92;9.77;;;;;;;;;;5001862;28;93127;-70
2022/01/27 10:03:13;;;;;;;35.65;11.88;;;;;;;;;;4998786;28;92724;-70
2022/01/27 10:05:40;;;;;;;25.45;11.38;;;;;;;;;;4994235;28;96633;-71
2022/01/27 10:08:14;;;;;;;27.30;10.35;;;;;;;;;;5001918;28;93101;-69
2022/01/27 10:10:42;;;;;;;27.02;10.18;;;;;;;;;;4991786;28;94892;-69
2022/01/27 10:13:25;;;;;;;27.88;11.10;;;;;;;;;;4994156;28;94315;-69
2022/01/27 10:15:53;;;;;;;30.80;10.73;;;;;;;;;;5001897;28;92938;-69
2022/01/27 10:18:22;;;;;;;21.20;10.25;;;;;;;;;;5007995;28;94643;-69
2022/01/27 10:21:02;;;;;;;24.50;9.85;;;;;;;;;;5000887;28;92496;-69
2022/01/27 10:23:32;;;;;;;25.02;9.82;;;;;;;;;;4979121;28;91787;-69
2022/01/27 10:26:08;;;;;;;28.77;10.38;;;;;;;;;;4983598;28;93647;-69
2022/01/27 10:28:45;;;;;;;20.33;7.90;;;;;;;;;;4990656;28;93424;-69
2022/01/27 10:31:24;;;;;;;24.75;8.80;;;;;;;;;;4989893;28;94950;-69
2022/01/27 10:33:58;;;;;;;19.08;8.70;;;;;;;;;;4996442;28;93664;-69
2022/01/27 10:36:36;;;;;;;28.50;10.63;;;;;;;;;;5000567;28;93148;-68
2022/01/27 10:39:08;;;;;;;25.17;8.85;;;;;;;;;;5001222;28;96967;-69
2022/01/27 10:41:36;;;;;;;38.65;10.35;;;;;;;;;;4989529;28;93570;-68
2022/01/27 10:44:07;;;;;;;26.63;10.18;;;;;;;;;;4992787;28;93252;-68
2022/01/27 10:46:34;;;;;;;31.85;10.98;;;;;;;;;;4993178;28;95268;-69
2022/01/27 10:49:12;;;;;;;16.40;7.05;;;;;;;;;;4994099;28;93536;-69
2022/01/27 10:51:45;;;;;;;28.38;10.55;;;;;;;;;;5002937;28;92488;-69
2022/01/27 10:54:24;;;;;;;21.55;10.32;;;;;;;;;;4992574;28;94370;-72
2022/01/27 10:56:50;;;;;;;25.40;9.52;;;;;;;;;;4992443;28;95589;-69
2022/01/27 10:59:19;;;;;;;28.88;9.77;;;;;;;;;;4996035;28;97277;-71
2022/01/27 11:01:47;;;;;;;17.00;8.38;;;;;;;;;;4995827;28;94745;-71
2022/01/27 11:04:14;;;;;;;31.45;10.38;;;;;;;;;;4995247;28;92901;-70
2022/01/27 11:06:52;;;;;;;30.70;9.38;;;;;;;;;;4991577;28;93924;-68
2022/01/27 11:09:19;;;;;;;22.63;9.88;;;;;;;;;;4995258;28;94399;-71
2022/01/27 11:11:48;;;;;;;22.83;7.65;;;;;;;;;;4990289;28;92554;-69
2022/01/27 11:14:14;;;;;;;25.58;8.77;;;;;;;;;;5001608;28;93692;-69
2022/01/27 11:16:43;;;;;;;21.92;9.25;;;;;;;;;;4993949;28;92513;-68
2022/01/27 11:21:56;;;;;;;20.63;8.88;;;;;;;;;;4985249;28;97073;-68
2022/01/27 11:24:29;;;;;;;19.63;8.20;;;;;;;;;;4991736;28;92849;-68
2022/01/27 11:26:57;;;;;;;19.17;6.93;;;;;;;;;;4994445;28;94376;-68
2022/01/27 11:29:24;;;;;;;33.80;9.43;;;;;;;;;;4993068;28;93709;-70
2022/01/27 11:32:14;;;;;;;19.67;8.48;;;;;;;;;;4992360;28;93030;-70
2022/01/27 11:34:45;;;;;;;26.88;9.10;;;;;;;;;;4992055;28;92980;-70
2022/01/27 11:37:16;;;;;;;20.20;7.80;;;;;;;;;;4997014;28;94480;-69
2022/01/27 11:39:52;;;;;;;14.50;6.28;;;;;;;;;;4994666;28;94106;-70
2022/01/27 11:42:34;;;;;;;21.77;7.88;;;;;;;;;;4996737;28;94138;-68
2022/01/27 11:45:19;;;;;;;31.70;7.40;;;;;;;;;;4982615;28;95506;-70
2022/01/27 11:48:00;;;;;;;26.85;8.18;;;;;;;;;;4981545;28;94904;-70
2022/01/27 11:50:35;;;;;;;18.33;7.32;;;;;;;;;;4982699;28;94235;-70
2022/01/27 11:53:05;;;;;;;21.60;7.50;;;;;;;;;;4974596;28;92503;-70
2022/01/27 11:55:34;;;;;;;21.58;7.72;;;;;;;;;;4989564;28;94660;-70
2022/01/27 11:58:11;;;;;;;26.23;8.65;;;;;;;;;;4992970;28;94271;-70
2022/01/27 12:00:39;;;;;;;19.65;6.45;;;;;;;;;;4986343;28;96175;-70
2022/01/27 12:03:10;;;;;;;17.02;5.68;;;;;;;;;;4991585;28;93381;-70
2022/01/27 12:05:39;;;;;;;15.50;6.38;;;;;;;;;;4994033;28;93218;-69
2022/01/27 12:08:12;;;;;;;23.33;6.80;;;;;;;;;;4996385;28;92841;-70
2022/01/27 12:10:45;;;;;;;29.33;8.38;;;;;;;;;;5001900;28;93306;-70
2022/01/27 12:13:36;;;;;;;31.38;7.68;;;;;;;;;;4989605;28;94948;-70
2022/01/27 12:19:04;;;;;;;22.80;7.38;;;;;;;;;;4994843;28;94228;-70
2022/01/27 12:21:31;;;;;;;24.77;7.32;;;;;;;;;;4988086;28;92488;-70
2022/01/27 12:24:10;;;;;;;19.05;6.45;;;;;;;;;;4997259;28;95645;-70
2022/01/27 12:26:45;;;;;;;25.23;6.72;;;;;;;;;;4990117;28;93439;-70
2022/01/27 12:29:19;;;;;;;25.83;7.63;;;;;;;;;;4992060;28;93938;-70
2022/01/27 12:31:46;;;;;;;15.98;6.72;;;;;;;;;;4986641;28;93747;-70
2022/01/27 12:34:12;;;;;;;26.58;8.77;;;;;;;;;;4992465;28;92481;-70
2022/01/27 12:36:39;;;;;;;11.95;5.63;;;;;;;;;;4991161;28;95520;-70
2022/01/27 12:39:05;;;;;;;22.73;6.85;;;;;;;;;;4997387;28;95963;-69
2022/01/27 12:41:35;;;;;;;21.67;7.20;;;;;;;;;;4991962;28;92615;-69
2022/01/27 12:44:08;;;;;;;17.73;5.05;;;;;;;;;;4991020;28;96091;-70
2022/01/27 12:46:34;;;;;;;17.55;5.38;;;;;;;;;;4994631;28;92442;-70
2022/01/27 12:49:03;;;;;;;24.02;6.50;;;;;;;;;;4992646;28;94186;-70
2022/01/27 12:51:50;;;;;;;7.80;4.73;;;;;;;;;;4995148;28;95451;-69
2022/01/27 12:54:24;;;;;;;11.60;5.20;;;;;;;;;;4997328;28;92623;-70
2022/01/27 12:56:51;;;;;;;13.77;5.45;;;;;;;;;;4994433;28;94126;-70
2022/01/27 12:59:17;;;;;;;11.55;4.22;;;;;;;;;;4995794;28;94873;-70
2022/01/27 13:01:44;;;;;;;14.75;4.82;;;;;;;;;;4989120;28;92642;-70
2022/01/27 13:04:12;;;;;;;19.08;5.68;;;;;;;;;;4987175;28;95009;-70
2022/01/27 13:06:38;;;;;;;18.35;4.95;;;;;;;;;;4995309;28;94150;-69
2022/01/27 13:09:12;;;;;;;16.45;5.10;;;;;;;;;;4993031;28;93134;-69
2022/01/27 13:11:40;;;;;;;11.60;4.63;;;;;;;;;;4991901;28;94511;-70
2022/01/27 13:14:07;;;;;;;9.80;4.30;;;;;;;;;;4993693;28;92535;-69
2022/01/27 13:16:40;;;;;;;16.92;4.68;;;;;;;;;;4994776;28;93915;-70
2022/01/27 13:19:20;;;;;;;21.88;5.13;;;;;;;;;;4991071;28;94013;-70
2022/01/27 13:21:52;;;;;;;15.23;4.38;;;;;;;;;;4996518;28;92881;-69
2022/01/27 13:24:33;;;;;;;12.10;3.95;;;;;;;;;;4992316;28;94568;-70
2022/01/27 13:27:09;;;;;;;9.05;3.75;;;;;;;;;;4994297;28;93500;-68
2022/01/27 13:29:43;;;;;;;13.88;3.50;;;;;;;;;;4989580;28;95002;-70
2022/01/27 13:32:10;;;;;;;10.88;4.10;;;;;;;;;;4992741;28;92748;-69
2022/01/27 13:34:40;;;;;;;12.20;4.38;;;;;;;;;;4992898;28;92479;-70
2022/01/27 13:37:07;;;;;;;12.32;3.35;;;;;;;;;;4997476;28;93254;-70
2022/01/27 13:42:19;;;;;;;17.17;4.50;;;;;;;;;;4994241;28;92491;-70
2022/01/27 13:44:52;;;;;;;13.80;3.88;;;;;;;;;;4992292;28;93202;-69
2022/01/27 13:47:25;;;;;;;26.02;3.97;;;;;;;;;;4992799;28;92745;-69
2022/01/27 13:49:52;;;;;;;11.48;3.47;;;;;;;;;;4990426;28;94324;-70
2022/01/27 13:52:18;;;;;;;20.48;3.83;;;;;;;;;;4994478;28;94077;-69
2022/01/27 13:54:46;;;;;;;12.05;3.40;;;;;;;;;;4986134;28;95799;-69
2022/01/27 13:57:15;;;;;;;18.05;3.97;;;;;;;;;;4989787;28;95156;-69
2022/01/27 13:59:43;;;;;;;10.80;3.65;;;;;;;;;;4985765;28;94750;-69
2022/01/27 14:02:14;;;;;;;16.42;3.30;;;;;;;;;;4988471;28;94037;-68
2022/01/27 14:04:45;;;;;;;9.70;3.13;;;;;;;;;;4988890;28;93751;-68
2022/01/27 14:07:11;;;;;;;16.15;3.67;;;;;;;;;;4990707;28;93723;-68
2022/01/27 14:09:44;;;;;;;17.53;3.70;;;;;;;;;;4989004;28;92682;-68
2022/01/27 14:12:13;;;;;;;12.25;3.35;;;;;;;;;;4989813;28;94290;-68
2022/01/27 14:14:43;;;;;;;20.13;3.72;;;;;;;;;;4984007;28;95159;-67
2022/01/27 14:17:25;;;;;;;13.50;3.95;;;;;;;;;;4987554;28;93675;-68
2022/01/27 14:19:53;;;;;;;16.75;3.45;;;;;;;;;;4978253;28;95948;-68
2022/01/27 14:22:20;;;;;;;12.05;3.00;;;;;;;;;;4991539;28;92509;-68
2022/01/27 14:25:09;;;;;;;14.15;3.40;;;;;;;;;;4992312;28;94319;-68
2022/01/27 14:27:40;;;;;;;12.45;2.95;;;;;;;;;;4990298;28;93274;-68
2022/01/27 14:30:12;;;;;;;10.95;2.45;;;;;;;;;;4989241;28;93045;-68
2022/01/27 14:32:39;;;;;;;8.68;2.17;;;;;;;;;;4983485;28;93291;-68
2022/01/27 14:35:07;;;;;;;13.57;2.97;;;;;;;;;;4986507;28;94272;-68
2022/01/27 14:37:37;;;;;;;15.43;3.63;;;;;;;;;;4987702;28;92982;-68
2022/01/27 14:40:07;;;;;;;5.97;2.10;;;;;;;;;;4985732;28;94168;-68
2022/01/27 14:42:35;;;;;;;12.20;2.85;;;;;;;;;;4982994;28;92560;-68
2022/01/27 14:45:03;;;;;;;8.63;2.22;;;;;;;;;;4979994;28;96171;-68
2022/01/27 14:47:29;;;;;;;8.13;2.15;;;;;;;;;;4991657;28;94036;-68
2022/01/27 14:49:56;;;;;;;11.82;3.28;;;;;;;;;;4990574;28;92733;-69
2022/01/27 14:52:27;;;;;;;19.98;3.60;;;;;;;;;;4982927;28;93172;-69
2022/01/27 14:54:53;;;;;;;7.43;2.97;;;;;;;;;;4985172;28;93824;-68
2022/01/27 14:57:36;;;;;;;10.25;2.58;;;;;;;;;;4988868;28;92778;-68
2022/01/27 15:00:06;;;;;;;10.88;3.58;;;;;;;;;;4988769;28;93758;-68
2022/01/27 15:02:33;;;;;;;12.25;2.55;;;;;;;;;;4985244;28;91715;-68
2022/01/27 15:04:59;;;;;;;14.50;4.43;;;;;;;;;;4981090;28;92472;-68
2022/01/27 15:07:26;;;;;;;11.25;2.25;;;;;;;;;;4975996;28;94231;-68
2022/01/27 15:09:52;;;;;;;15.82;2.88;;;;;;;;;;4981754;28;94870;-68
2022/01/27 15:12:19;;;;;;;13.57;3.08;;;;;;;;;;4974800;28;95501;-68
2022/01/27 15:20:15;;;;;;;11.95;2.33;;;;;;;;;;4982667;28;93315;-68
2022/01/27 15:22:41;;;;;;;11.75;2.35;;;;;;;;;;4976753;28;92488;-69
2022/01/27 15:25:11;;;;;;;12.68;2.60;;;;;;;;;;4980409;28;93589;-68